Time;durP1;ratioP1;P1;durP2;ratioP2;P2;SDS_P1;SDS_P2;PMS_P1;PMS_P2;Temp;Humidity;BMP_temperature;BMP_pressure;BME280_temperature;BME280_humidity;BME280_pressure;Samples;Min_cycle;Max_cycle;Signal;HPM_P1;HPM_P2
2023/01/14 00:01:12;;;;;;;;;;;;;;;11.65;55.74;99908.06;4476592;32;33985;-66
2023/01/14 00:03:40;;;;;;;;;;;;;;;11.61;55.84;99915.47;4473593;32;33266;-65
2023/01/14 00:06:08;;;;;;;;;;;;;;;11.48;56.28;99912.03;4470863;32;34051;-65
2023/01/14 00:08:35;;;;;;;;;;;;;;;11.68;55.80;99917.69;4465112;32;34370;-67
2023/01/14 00:11:04;;;;;;;;;;;;;;;11.84;55.05;99907.50;4474433;32;35319;-67
2023/01/14 00:13:32;;;;;;;;;;;;;;;11.80;54.94;99911.41;4470417;32;33637;-65
2023/01/14 00:15:59;;;;;;;;;;;;;;;11.38;56.12;99911.88;4468935;32;35344;-68
2023/01/14 00:18:27;;;;;;;;;;;;;;;11.65;55.10;99911.63;4482543;32;35582;-68
2023/01/14 00:20:58;;;;;;;;;;;;;;;11.75;54.60;99908.19;4472197;32;34153;-66
2023/01/14 00:23:25;;;;;;;;;;;;;;;11.59;55.32;99908.56;4482851;32;33286;-65
2023/01/14 00:25:53;;;;;;;;;;;;;;;11.24;56.04;99912.06;4476835;32;34114;-64
2023/01/14 00:28:23;;;;;;;;;;;;;;;11.49;55.40;99903.00;4469362;32;32889;-65
2023/01/14 00:30:50;;;;;;;;;;;;;;;11.69;54.92;99919.44;4479675;32;34325;-64
2023/01/14 00:33:18;;;;;;;;;;;;;;;11.69;54.69;99911.38;4479639;32;33333;-66
2023/01/14 00:35:51;;;;;;;;;;;;;;;11.64;54.68;99909.03;4469750;32;34044;-64
2023/01/14 00:38:20;;;;;;;;;;;;;;;11.71;54.56;99904.91;4476464;32;34083;-64
2023/01/14 00:40:47;;;;;;;;;;;;;;;11.87;53.77;99915.34;4482464;32;33995;-63
2023/01/14 00:43:14;;;;;;;;;;;;;;;11.79;54.01;99915.06;4470460;32;33880;-65
2023/01/14 00:45:42;;;;;;;;;;;;;;;11.76;53.95;99916.16;4476430;32;33834;-64
2023/01/14 00:48:09;;;;;;;;;;;;;;;11.73;54.12;99921.75;4470139;31;34198;-65
2023/01/14 00:50:36;;;;;;;;;;;;;;;11.59;54.57;99917.44;4473059;32;34118;-63
2023/01/14 00:53:04;;;;;;;;;;;;;;;11.70;54.19;99913.09;4475149;32;33095;-63
2023/01/14 00:55:33;;;;;;;;;;;;;;;11.72;54.25;99919.16;4453974;32;32280;-63
2023/01/14 00:58:00;;;;;;;;;;;;;;;11.71;54.38;99922.84;4483882;32;34191;-65
2023/01/14 01:00:28;;;;;;;;;;;;;;;11.74;54.17;99920.75;4470883;32;34154;-67
2023/01/14 01:02:57;;;;;;;;;;;;;;;11.76;54.18;99920.66;4471027;31;33207;-70
2023/01/14 01:05:26;;;;;;;;;;;;;;;11.64;54.39;99917.09;4469828;32;35188;-68
2023/01/14 01:07:53;;;;;;;;;;;;;;;11.60;54.72;99910.25;4467458;32;34147;-68
2023/01/14 01:10:20;;;;;;;;;;;;;;;11.64;54.61;99909.87;4468690;32;33955;-68
2023/01/14 01:12:49;;;;;;;;;;;;;;;11.53;55.02;99912.56;4468726;32;33466;-69
2023/01/14 01:15:18;;;;;;;;;;;;;;;11.49;55.07;99912.88;4472488;32;34361;-67
2023/01/14 01:17:45;;;;;;;;;;;;;;;11.54;55.00;99918.75;4463248;32;35271;-65
2023/01/14 01:20:14;;;;;;;;;;;;;;;11.59;54.74;99912.09;4444864;31;817393;-67
2023/01/14 01:22:41;;;;;;;;;;;;;;;11.70;54.24;99919.31;4479583;32;32719;-65
2023/01/14 01:25:08;;;;;;;;;;;;;;;11.69;54.43;99919.44;4476896;32;33664;-68
2023/01/14 01:27:35;;;;;;;;;;;;;;;11.71;54.38;99914.78;4479698;32;34448;-70
2023/01/14 01:30:03;;;;;;;;;;;;;;;11.63;54.23;99916.22;4469348;31;33893;-69
2023/01/14 01:32:30;;;;;;;;;;;;;;;11.62;54.44;99913.66;4479657;32;34229;-68
2023/01/14 01:34:59;;;;;;;;;;;;;;;11.57;54.64;99924.75;4474086;32;34881;-70
2023/01/14 01:37:27;;;;;;;;;;;;;;;11.65;54.32;99925.03;4483794;32;35518;-70
2023/01/14 01:39:54;;;;;;;;;;;;;;;11.70;53.88;99913.94;4468759;32;34669;-71
2023/01/14 01:42:23;;;;;;;;;;;;;;;11.36;54.69;99924.56;4479964;32;33177;-70
2023/01/14 01:44:50;;;;;;;;;;;;;;;11.50;54.69;99925.34;4481150;32;34231;-69
2023/01/14 01:47:17;;;;;;;;;;;;;;;11.54;54.57;99921.44;4483307;31;34880;-70
2023/01/14 01:49:44;;;;;;;;;;;;;;;11.58;54.27;99920.22;4460144;32;34212;-67
2023/01/14 01:52:13;;;;;;;;;;;;;;;11.60;54.18;99920.97;4469001;32;33174;-69
2023/01/14 01:54:45;;;;;;;;;;;;;;;11.58;54.25;99917.56;4456718;32;34538;-69
2023/01/14 01:57:13;;;;;;;;;;;;;;;11.61;53.94;99914.63;4480915;32;34281;-68
2023/01/14 01:59:42;;;;;;;;;;;;;;;11.61;53.70;99920.00;4469557;31;32927;-66
2023/01/14 02:02:09;;;;;;;;;;;;;;;11.56;54.08;99919.50;4468948;32;33682;-65
2023/01/14 02:04:37;;;;;;;;;;;;;;;11.52;54.38;99913.50;4471416;32;33841;-65
2023/01/14 02:07:30;;;;;;;;;;;;;;;11.61;53.80;99925.34;4468974;32;35288;-65
2023/01/14 02:09:59;;;;;;;;;;;;;;;11.23;54.91;99917.53;4473636;32;34260;-64
2023/01/14 02:12:37;;;;;;;;;;;;;;;11.58;53.88;99926.44;4460715;32;33593;-65
2023/01/14 02:15:27;;;;;;;;;;;;;;;11.49;53.96;99931.66;4452219;32;33802;-65
2023/01/14 02:18:13;;;;;;;;;;;;;;;11.65;53.03;99929.50;4459116;32;33962;-65
2023/01/14 02:20:41;;;;;;;;;;;;;;;11.55;53.41;99931.19;4471892;32;34063;-67
2023/01/14 02:23:19;;;;;;;;;;;;;;;11.58;53.14;99920.22;4474732;32;33325;-65
2023/01/14 02:25:56;;;;;;;;;;;;;;;11.58;53.07;99921.09;4462308;32;33986;-65
2023/01/14 02:28:23;;;;;;;;;;;;;;;11.60;52.84;99919.16;4465142;32;34280;-65
2023/01/14 02:31:03;;;;;;;;;;;;;;;11.62;52.88;99927.94;4468439;32;33534;-65
2023/01/14 02:33:37;;;;;;;;;;;;;;;11.64;52.91;99925.97;4479753;32;33345;-66
2023/01/14 02:36:06;;;;;;;;;;;;;;;11.56;53.42;99928.41;4475321;32;35704;-67
2023/01/14 02:38:57;;;;;;;;;;;;;;;11.59;52.97;99928.16;4463581;32;34502;-68
2023/01/14 02:44:46;;;;;;;;;;;;;;;11.49;53.92;99935.19;4445180;32;32845;-67
2023/01/14 02:47:15;;;;;;;;;;;;;;;11.60;53.63;99935.22;4462029;32;34208;-65
2023/01/14 02:49:42;;;;;;;;;;;;;;;11.58;53.27;99928.28;4461418;32;34123;-65
2023/01/14 02:52:11;;;;;;;;;;;;;;;11.45;53.95;99932.84;4452771;32;34672;-65
2023/01/14 02:54:39;;;;;;;;;;;;;;;11.47;54.34;99938.97;4466489;31;33513;-65
2023/01/14 02:57:08;;;;;;;;;;;;;;;11.43;54.57;99944.56;4470563;32;34118;-67
2023/01/14 02:59:48;;;;;;;;;;;;;;;11.42;54.67;99950.00;4468125;32;34123;-65
2023/01/14 03:02:29;;;;;;;;;;;;;;;11.58;54.22;99950.56;4460927;32;33783;-66
2023/01/14 03:05:16;;;;;;;;;;;;;;;11.53;54.39;99951.91;4469335;32;33961;-67
2023/01/14 03:07:50;;;;;;;;;;;;;;;11.32;54.87;99954.38;4470780;32;34447;-66
2023/01/14 03:10:28;;;;;;;;;;;;;;;11.43;54.33;99952.59;4473177;32;35442;-68
2023/01/14 03:12:58;;;;;;;;;;;;;;;11.41;54.23;99959.88;4454634;32;33864;-65
2023/01/14 03:15:38;;;;;;;;;;;;;;;11.41;53.71;99967.06;4473458;32;32341;-67
2023/01/14 03:18:10;;;;;;;;;;;;;;;11.44;53.40;99972.22;4477735;32;35293;-68
2023/01/14 03:20:40;;;;;;;;;;;;;;;11.39;53.70;99961.81;4455121;32;35474;-68
2023/01/14 03:23:09;;;;;;;;;;;;;;;11.50;53.01;99958.34;4450176;32;34091;-65
2023/01/14 03:25:37;;;;;;;;;;;;;;;11.01;54.60;99967.34;4462364;32;31761;-65
2023/01/14 03:28:05;;;;;;;;;;;;;;;11.15;54.18;99958.28;4451441;32;34203;-65
2023/01/14 03:30:35;;;;;;;;;;;;;;;11.27;53.82;99965.44;4459282;32;34179;-67
2023/01/14 03:33:04;;;;;;;;;;;;;;;11.39;53.18;99969.00;4453892;32;34269;-65
2023/01/14 03:35:33;;;;;;;;;;;;;;;11.24;53.57;99968.34;4457197;32;34361;-65
2023/01/14 03:38:00;;;;;;;;;;;;;;;10.97;54.60;99979.25;4456017;32;34113;-67
2023/01/14 03:40:28;;;;;;;;;;;;;;;10.92;54.67;99978.72;4478828;31;34186;-65
2023/01/14 03:42:57;;;;;;;;;;;;;;;11.12;54.44;99974.59;4454088;32;34605;-64
2023/01/14 03:45:29;;;;;;;;;;;;;;;11.25;53.79;99974.53;4475600;32;34374;-67
2023/01/14 03:47:56;;;;;;;;;;;;;;;10.78;55.07;99976.19;4464363;32;34032;-64
2023/01/14 03:50:25;;;;;;;;;;;;;;;10.92;54.99;99976.91;4466897;32;35494;-65
2023/01/14 03:53:11;;;;;;;;;;;;;;;11.18;53.91;99976.81;4468806;32;33090;-64
2023/01/14 03:55:42;;;;;;;;;;;;;;;11.23;53.58;99989.88;4461501;32;35472;-63
2023/01/14 03:58:14;;;;;;;;;;;;;;;10.81;54.65;99984.84;4473627;32;33919;-67
2023/01/14 04:00:44;;;;;;;;;;;;;;;11.23;53.57;99977.31;4450433;32;34161;-65
2023/01/14 04:03:12;;;;;;;;;;;;;;;10.76;55.04;99988.84;4459963;32;33437;-64
2023/01/14 04:05:40;;;;;;;;;;;;;;;11.19;53.60;99973.16;4450638;31;33389;-65
2023/01/14 04:08:07;;;;;;;;;;;;;;;11.16;53.71;99974.25;4474159;32;35267;-64
2023/01/14 04:10:34;;;;;;;;;;;;;;;11.17;53.61;99977.78;4460819;32;33957;-64
2023/01/14 04:15:48;;;;;;;;;;;;;;;10.90;53.87;99980.66;4470078;32;34564;-64
2023/01/14 04:18:15;;;;;;;;;;;;;;;10.88;53.89;99977.22;4466123;32;34294;-63
2023/01/14 04:20:42;;;;;;;;;;;;;;;10.69;53.92;99991.09;4477862;32;34438;-64
2023/01/14 04:23:10;;;;;;;;;;;;;;;10.87;53.25;99994.25;4480165;31;35051;-64
2023/01/14 04:25:37;;;;;;;;;;;;;;;10.95;53.28;99995.44;4471315;32;33412;-65
2023/01/14 04:28:04;;;;;;;;;;;;;;;10.89;53.33;99992.34;4479323;32;35368;-66
2023/01/14 04:30:31;;;;;;;;;;;;;;;11.02;53.01;99997.66;4473483;32;35432;-63
2023/01/14 04:32:59;;;;;;;;;;;;;;;10.98;52.74;99989.00;4481400;31;35617;-66
2023/01/14 04:35:33;;;;;;;;;;;;;;;10.96;52.65;99990.94;4466220;32;33986;-64
2023/01/14 04:38:00;;;;;;;;;;;;;;;10.99;52.06;99987.19;4479498;32;33884;-64
2023/01/14 04:40:28;;;;;;;;;;;;;;;10.79;52.57;100002.87;4471198;31;34169;-64
2023/01/14 04:42:55;;;;;;;;;;;;;;;10.81;52.54;100016.13;4478319;32;33852;-66
2023/01/14 04:45:23;;;;;;;;;;;;;;;10.82;52.36;100018.72;4466708;32;33526;-66
2023/01/14 04:47:50;;;;;;;;;;;;;;;10.90;51.68;100010.97;4471315;32;33380;-65
2023/01/14 04:50:33;;;;;;;;;;;;;;;10.80;51.80;100015.28;4476265;31;34154;-65
2023/01/14 04:53:08;;;;;;;;;;;;;;;10.90;51.43;100021.69;4473708;32;34033;-66
2023/01/14 04:55:39;;;;;;;;;;;;;;;10.76;52.06;100021.81;4475337;32;33028;-63
2023/01/14 04:58:07;;;;;;;;;;;;;;;10.82;52.16;100034.78;4465855;32;35316;-66
2023/01/14 05:00:34;;;;;;;;;;;;;;;10.86;52.22;100025.53;4477974;32;34357;-64
2023/01/14 05:03:03;;;;;;;;;;;;;;;10.72;52.48;100028.34;4475836;32;34254;-67
2023/01/14 05:05:30;;;;;;;;;;;;;;;10.65;52.48;100021.72;4475575;32;32080;-66
2023/01/14 05:07:58;;;;;;;;;;;;;;;10.15;53.62;100020.72;4474125;31;32997;-67
2023/01/14 05:10:25;;;;;;;;;;;;;;;10.66;52.61;100018.09;4471940;32;35549;-66
2023/01/14 05:13:00;;;;;;;;;;;;;;;10.67;52.44;100017.97;4466662;32;33852;-66
2023/01/14 05:15:34;;;;;;;;;;;;;;;10.77;51.84;100026.19;4477616;32;33183;-68
2023/01/14 05:18:02;;;;;;;;;;;;;;;10.51;53.05;100025.38;4469253;32;33872;-69
2023/01/14 05:20:29;;;;;;;;;;;;;;;10.48;53.14;100034.47;4478683;32;35730;-68
2023/01/14 05:22:58;;;;;;;;;;;;;;;10.78;52.04;100030.56;4469714;32;34127;-65
2023/01/14 05:25:25;;;;;;;;;;;;;;;10.76;52.55;100026.31;4474465;32;32076;-69
2023/01/14 05:27:52;;;;;;;;;;;;;;;10.79;52.41;100026.97;4477449;32;32775;-67
2023/01/14 05:30:20;;;;;;;;;;;;;;;10.78;52.07;100035.09;4473062;32;34640;-66
2023/01/14 05:32:47;;;;;;;;;;;;;;;10.76;51.61;100029.84;4474950;32;35447;-66
2023/01/14 05:35:17;;;;;;;;;;;;;;;10.49;52.87;100035.31;4472596;32;33335;-66
2023/01/14 05:37:44;;;;;;;;;;;;;;;10.63;52.51;100040.56;4467857;32;33928;-64
2023/01/14 05:40:12;;;;;;;;;;;;;;;10.66;52.42;100039.50;4467095;32;35442;-65
2023/01/14 05:48:11;;;;;;;;;;;;;;;10.62;51.52;100048.69;4477539;32;34151;-64
2023/01/14 05:50:38;;;;;;;;;;;;;;;10.31;51.98;100041.97;4481101;32;35448;-64
2023/01/14 05:53:06;;;;;;;;;;;;;;;10.30;52.15;100042.91;4474522;32;35175;-66
2023/01/14 05:55:34;;;;;;;;;;;;;;;10.15;52.05;100039.44;4467433;32;33111;-65
2023/01/14 05:58:02;;;;;;;;;;;;;;;9.85;52.79;100045.03;4467174;32;33843;-65
2023/01/14 06:06:21;;;;;;;;;;;;;;;9.94;52.20;100064.00;4474753;32;33519;-64
2023/01/14 06:08:49;;;;;;;;;;;;;;;9.98;52.41;100059.28;4473042;32;32669;-64
2023/01/14 06:11:18;;;;;;;;;;;;;;;9.79;53.00;100060.53;4473737;32;34931;-64
2023/01/14 06:13:46;;;;;;;;;;;;;;;10.07;51.28;100065.84;4469840;32;34476;-72
2023/01/14 06:16:14;;;;;;;;;;;;;;;10.09;50.83;100067.47;4467868;32;32045;-70
2023/01/14 06:18:44;;;;;;;;;;;;;;;10.10;50.46;100068.31;4476083;32;33782;-69
2023/01/14 06:21:12;;;;;;;;;;;;;;;9.96;50.68;100072.78;4465491;32;34473;-67
2023/01/14 06:23:40;;;;;;;;;;;;;;;9.85;51.45;100075.28;4473484;32;34034;-72
2023/01/14 06:26:08;;;;;;;;;;;;;;;9.74;52.29;100076.00;4474907;32;34259;-67
2023/01/14 06:28:35;;;;;;;;;;;;;;;9.76;52.83;100076.78;4467888;31;34330;-66
2023/01/14 06:31:23;;;;;;;;;;;;;;;9.29;53.37;100077.19;4473196;32;33767;-66
2023/01/14 06:33:50;;;;;;;;;;;;;;;9.70;52.36;100074.50;4470409;32;34436;-66
2023/01/14 06:36:18;;;;;;;;;;;;;;;9.60;52.32;100080.53;4479541;32;33499;-65
2023/01/14 06:38:45;;;;;;;;;;;;;;;9.82;51.91;100078.16;4476803;32;34241;-66
2023/01/14 06:41:12;;;;;;;;;;;;;;;10.03;51.01;100075.88;4475618;32;34210;-65
2023/01/14 06:43:44;;;;;;;;;;;;;;;10.04;50.64;100070.41;4476058;32;34140;-65
2023/01/14 06:46:12;;;;;;;;;;;;;;;10.14;50.12;100075.16;4476151;32;34740;-65
2023/01/14 06:48:39;;;;;;;;;;;;;;;9.99;50.98;100080.59;4466306;32;33890;-67
2023/01/14 06:51:08;;;;;;;;;;;;;;;9.78;51.49;100082.88;4475890;32;34050;-67
2023/01/14 06:53:35;;;;;;;;;;;;;;;9.80;52.13;100086.31;4474676;32;35248;-67
2023/01/14 06:56:03;;;;;;;;;;;;;;;9.89;51.89;100081.31;4464484;32;33177;-65
2023/01/14 06:58:31;;;;;;;;;;;;;;;10.03;51.62;100075.88;4473900;32;35184;-65
2023/01/14 07:00:58;;;;;;;;;;;;;;;10.19;51.18;100078.38;4471154;32;34618;-65
2023/01/14 07:03:26;;;;;;;;;;;;;;;10.29;51.18;100081.31;4474673;32;33064;-64
2023/01/14 07:05:53;;;;;;;;;;;;;;;10.66;50.57;100101.06;4470229;32;33126;-65
2023/01/14 07:08:21;;;;;;;;;;;;;;;10.88;49.92;100103.97;4479255;32;32827;-67
2023/01/14 07:10:49;;;;;;;;;;;;;;;10.79;48.92;100101.06;4475949;32;34243;-67
2023/01/14 07:13:17;;;;;;;;;;;;;;;10.30;49.72;100099.94;4474908;32;34169;-67
2023/01/14 07:15:45;;;;;;;;;;;;;;;10.34;50.09;100109.50;4467686;32;32945;-66
2023/01/14 07:18:12;;;;;;;;;;;;;;;10.04;50.39;100107.88;4468766;32;34007;-65
2023/01/14 07:20:40;;;;;;;;;;;;;;;10.10;50.20;100105.75;4467035;32;34361;-67
2023/01/14 07:23:07;;;;;;;;;;;;;;;10.21;50.06;100112.09;4473757;32;34921;-67
2023/01/14 07:25:35;;;;;;;;;;;;;;;10.78;49.26;100115.41;4474902;32;33437;-66
2023/01/14 07:28:03;;;;;;;;;;;;;;;11.27;48.17;100122.66;4474944;32;34765;-66
2023/01/14 07:30:31;;;;;;;;;;;;;;;11.70;46.79;100117.72;4472627;32;35126;-66
2023/01/14 07:32:59;;;;;;;;;;;;;;;11.90;46.66;100121.63;4464992;31;34856;-66
2023/01/14 07:35:27;;;;;;;;;;;;;;;11.73;47.64;100117.50;4470877;32;33975;-67
2023/01/14 07:37:55;;;;;;;;;;;;;;;11.31;49.29;100113.44;4472704;32;35105;-67
2023/01/14 07:40:22;;;;;;;;;;;;;;;10.99;49.75;100116.59;4474131;31;33887;-65
2023/01/14 07:42:53;;;;;;;;;;;;;;;10.86;50.81;100121.09;4471112;32;35280;-65
2023/01/14 07:45:20;;;;;;;;;;;;;;;10.81;51.11;100124.06;4472049;32;33210;-67
2023/01/14 07:47:48;;;;;;;;;;;;;;;10.76;51.34;100120.03;4475447;32;35213;-67
2023/01/14 07:50:16;;;;;;;;;;;;;;;10.47;52.26;100126.41;4475317;32;34404;-66
2023/01/14 07:52:43;;;;;;;;;;;;;;;10.78;51.82;100113.59;4471117;32;34220;-67
2023/01/14 07:55:10;;;;;;;;;;;;;;;10.87;51.73;100120.97;4472251;32;34789;-65
2023/01/14 07:57:38;;;;;;;;;;;;;;;10.85;51.93;100127.41;4471951;32;33065;-65
2023/01/14 08:00:06;;;;;;;;;;;;;;;11.16;51.40;100132.31;4475888;32;34892;-66
2023/01/14 08:02:37;;;;;;;;;;;;;;;11.35;51.35;100129.19;4474805;32;35191;-65
2023/01/14 08:05:05;;;;;;;;;;;;;;;11.54;51.04;100130.53;4469579;32;34309;-65
2023/01/14 08:07:32;;;;;;;;;;;;;;;11.87;50.46;100130.75;4466944;32;33786;-68
2023/01/14 08:09:59;;;;;;;;;;;;;;;11.84;50.37;100128.31;4470275;31;34183;-68
2023/01/14 08:12:32;;;;;;;;;;;;;;;11.90;50.54;100129.69;4469515;32;35111;-66
2023/01/14 08:14:59;;;;;;;;;;;;;;;12.20;50.03;100131.91;4479502;32;32921;-65
2023/01/14 08:17:27;;;;;;;;;;;;;;;12.47;49.28;100130.78;4472255;32;33908;-66
2023/01/14 08:19:55;;;;;;;;;;;;;;;12.75;48.81;100137.59;4473309;32;32443;-67
2023/01/14 08:22:22;;;;;;;;;;;;;;;12.93;48.23;100133.44;4475816;32;34909;-65
2023/01/14 08:24:50;;;;;;;;;;;;;;;13.20;48.15;100143.00;4474120;32;33381;-66
2023/01/14 08:27:17;;;;;;;;;;;;;;;13.47;47.44;100131.91;4474380;32;32682;-66
2023/01/14 08:29:44;;;;;;;;;;;;;;;13.40;47.92;100138.75;4476778;32;35485;-66
2023/01/14 08:32:13;;;;;;;;;;;;;;;13.84;47.23;100142.37;4469765;32;35159;-67
2023/01/14 08:34:40;;;;;;;;;;;;;;;13.87;47.43;100152.87;4472923;32;34266;-67
2023/01/14 08:37:07;;;;;;;;;;;;;;;14.25;46.61;100146.13;4478544;32;34527;-66
2023/01/14 08:39:35;;;;;;;;;;;;;;;14.47;46.37;100162.19;4471126;32;34219;-66
2023/01/14 08:42:02;;;;;;;;;;;;;;;15.13;45.49;100154.72;4474177;32;34100;-65
2023/01/14 08:44:29;;;;;;;;;;;;;;;15.60;43.15;100155.09;4475336;32;33102;-67
2023/01/14 08:46:57;;;;;;;;;;;;;;;15.28;43.72;100168.72;4472434;31;35546;-66
2023/01/14 08:49:24;;;;;;;;;;;;;;;15.37;44.38;100169.75;4483167;32;34124;-66
2023/01/14 08:51:54;;;;;;;;;;;;;;;15.96;43.91;100162.75;4479579;32;34448;-67
2023/01/14 08:54:21;;;;;;;;;;;;;;;16.81;41.65;100166.63;4470664;32;33366;-66
2023/01/14 08:56:48;;;;;;;;;;;;;;;16.44;42.19;100162.78;4470097;32;34138;-66
2023/01/14 08:59:16;;;;;;;;;;;;;;;16.54;42.50;100158.22;4474872;32;34162;-66
2023/01/14 09:01:43;;;;;;;;;;;;;;;16.77;41.95;100160.66;4476076;32;34403;-66
2023/01/14 09:04:21;;;;;;;;;;;;;;;16.58;41.67;100155.25;4472521;31;33276;-67
2023/01/14 09:17:56;;;;;;;;;;;;;;;18.23;39.15;100168.16;4468886;32;34181;-66
2023/01/14 09:20:24;;;;;;;;;;;;;;;18.80;37.33;100176.88;4467951;32;34406;-66
2023/01/14 09:22:51;;;;;;;;;;;;;;;19.27;36.68;100173.81;4461501;32;34257;-66
2023/01/14 09:25:19;;;;;;;;;;;;;;;20.71;33.03;100171.94;4471641;32;33090;-67
2023/01/14 09:27:53;;;;;;;;;;;;;;;20.65;33.36;100170.75;4472845;32;35206;-65
2023/01/14 09:30:21;;;;;;;;;;;;;;;20.41;33.97;100166.09;4472364;32;34917;-66
2023/01/14 09:32:48;;;;;;;;;;;;;;;19.47;35.71;100169.84;4473829;32;34513;-67
2023/01/14 09:35:15;;;;;;;;;;;;;;;19.34;36.45;100176.72;4469230;32;33602;-67
2023/01/14 09:37:43;;;;;;;;;;;;;;;19.42;36.02;100171.34;4475630;32;34384;-66
2023/01/14 09:40:22;;;;;;;;;;;;;;;21.36;33.47;100163.72;4484771;32;34215;-67
2023/01/14 09:42:50;;;;;;;;;;;;;;;20.96;32.74;100152.87;4470830;32;35069;-68
2023/01/14 09:45:24;;;;;;;;;;;;;;;20.66;33.92;100158.84;4456397;32;33472;-66
2023/01/14 09:47:52;;;;;;;;;;;;;;;20.11;34.16;100155.87;4480464;32;34002;-66
2023/01/14 09:50:35;;;;;;;;;;;;;;;19.18;36.01;100153.91;4466674;32;34322;-69
2023/01/14 09:53:04;;;;;;;;;;;;;;;18.33;37.70;100156.28;4477519;32;34685;-67
2023/01/14 09:55:34;;;;;;;;;;;;;;;18.25;37.20;100156.19;4469736;32;34518;-66
2023/01/14 09:58:04;;;;;;;;;;;;;;;17.90;37.97;100155.13;4473509;32;33814;-66
2023/01/14 10:00:33;;;;;;;;;;;;;;;17.36;39.13;100161.34;4464928;32;35250;-66
2023/01/14 10:03:06;;;;;;;;;;;;;;;16.95;39.36;100158.94;4462965;32;34921;-66
2023/01/14 10:05:33;;;;;;;;;;;;;;;15.71;42.54;100159.53;4466398;32;32929;-67
2023/01/14 10:08:01;;;;;;;;;;;;;;;16.28;41.52;100157.94;4478130;32;32741;-67
2023/01/14 10:10:36;;;;;;;;;;;;;;;15.65;42.37;100153.81;4461430;32;34657;-67
2023/01/14 10:13:05;;;;;;;;;;;;;;;15.83;41.88;100157.59;4461921;32;35249;-67
2023/01/14 10:15:35;;;;;;;;;;;;;;;15.39;42.98;100156.97;4468801;32;32990;-67
2023/01/14 10:18:13;;;;;;;;;;;;;;;15.25;43.50;100162.72;4475503;32;34089;-66
2023/01/14 10:20:49;;;;;;;;;;;;;;;14.52;44.80;100153.78;4467155;32;34362;-67
2023/01/14 10:23:17;;;;;;;;;;;;;;;15.19;43.24;100152.50;4473082;32;34083;-67
2023/01/14 10:25:47;;;;;;;;;;;;;;;14.70;45.57;100146.78;4457329;32;33603;-67
2023/01/14 10:28:15;;;;;;;;;;;;;;;14.66;44.96;100150.75;4471363;32;34358;-67
2023/01/14 10:30:42;;;;;;;;;;;;;;;14.59;44.86;100154.97;4462079;32;34366;-66
2023/01/14 10:33:12;;;;;;;;;;;;;;;14.02;47.12;100151.59;4460507;32;33864;-67
2023/01/14 10:35:40;;;;;;;;;;;;;;;14.22;46.49;100149.94;4451783;32;33109;-67
2023/01/14 10:38:07;;;;;;;;;;;;;;;14.70;45.35;100140.56;4475994;32;34098;-67
2023/01/14 10:40:34;;;;;;;;;;;;;;;13.85;46.80;100144.06;4455143;32;34455;-67
2023/01/14 10:43:02;;;;;;;;;;;;;;;13.45;48.00;100141.91;4469366;31;34122;-67
2023/01/14 10:45:29;;;;;;;;;;;;;;;14.12;46.87;100144.47;4445561;31;34469;-68
2023/01/14 10:48:04;;;;;;;;;;;;;;;13.85;47.63;100142.22;4461104;32;34335;-67
2023/01/14 10:50:32;;;;;;;;;;;;;;;13.44;47.75;100145.59;4479179;31;32414;-67
2023/01/14 10:53:16;;;;;;;;;;;;;;;13.21;48.25;100145.56;4480074;32;34450;-67
2023/01/14 10:56:02;;;;;;;;;;;;;;;13.65;47.14;100145.69;4475931;32;33402;-67
2023/01/14 10:58:43;;;;;;;;;;;;;;;13.87;47.13;100134.03;4476401;32;34283;-67
2023/01/14 11:01:10;;;;;;;;;;;;;;;13.89;46.85;100127.53;4465177;32;34126;-67
2023/01/14 11:03:42;;;;;;;;;;;;;;;13.08;49.07;100139.44;4478627;32;35250;-67
2023/01/14 11:06:12;;;;;;;;;;;;;;;12.90;49.20;100140.88;4457220;32;33062;-68
2023/01/14 11:08:40;;;;;;;;;;;;;;;12.00;50.79;100144.12;4476790;32;35284;-67
2023/01/14 11:11:08;;;;;;;;;;;;;;;12.98;49.29;100149.22;4472142;32;35614;-66
2023/01/14 11:13:44;;;;;;;;;;;;;;;13.37;47.97;100137.16;4465284;31;35285;-67
2023/01/14 11:16:25;;;;;;;;;;;;;;;13.72;47.09;100137.00;4470028;32;32073;-67
2023/01/14 11:19:00;;;;;;;;;;;;;;;13.55;48.39;100123.19;4468828;32;34242;-67
2023/01/14 11:21:39;;;;;;;;;;;;;;;13.74;47.58;100126.97;4477296;31;35177;-68
2023/01/14 11:24:28;;;;;;;;;;;;;;;13.75;47.90;100125.97;4480320;32;35534;-67
2023/01/14 11:26:59;;;;;;;;;;;;;;;13.81;47.19;100115.72;4458645;32;33706;-67
2023/01/14 11:29:27;;;;;;;;;;;;;;;13.99;46.77;100114.16;4473691;32;33892;-67
2023/01/14 11:31:57;;;;;;;;;;;;;;;14.05;46.78;100115.50;4478447;32;33152;-66
2023/01/14 11:34:24;;;;;;;;;;;;;;;13.91;46.73;100116.66;4477830;32;34962;-65
2023/01/14 11:36:51;;;;;;;;;;;;;;;14.07;47.38;100108.16;4469409;32;33456;-67
2023/01/14 11:39:19;;;;;;;;;;;;;;;14.38;46.44;100111.78;4457411;31;34089;-67
2023/01/14 11:41:47;;;;;;;;;;;;;;;13.99;47.35;100108.78;4471839;31;34026;-67
2023/01/14 11:44:15;;;;;;;;;;;;;;;14.01;46.55;100112.22;4472155;32;34012;-67
2023/01/14 11:46:44;;;;;;;;;;;;;;;14.26;46.65;100115.56;4473410;32;32201;-67
2023/01/14 11:49:12;;;;;;;;;;;;;;;13.65;47.96;100110.72;4483895;32;32854;-67
2023/01/14 11:51:40;;;;;;;;;;;;;;;13.57;47.62;100103.28;4472974;32;34815;-69
2023/01/14 11:54:18;;;;;;;;;;;;;;;13.53;48.13;100101.81;4478496;32;34309;-67
2023/01/14 11:56:46;;;;;;;;;;;;;;;13.30;48.29;100089.41;4473863;32;33080;-68
2023/01/14 11:59:17;;;;;;;;;;;;;;;13.14;48.63;100089.75;4462432;32;34714;-68
2023/01/14 12:01:48;;;;;;;;;;;;;;;13.54;47.39;100089.22;4462299;32;34595;-68
2023/01/14 12:04:18;;;;;;;;;;;;;;;12.89;48.92;100082.75;4476716;31;34468;-68
2023/01/14 12:06:47;;;;;;;;;;;;;;;12.99;49.51;100084.59;4488436;31;33504;-70
2023/01/14 12:09:17;;;;;;;;;;;;;;;13.58;47.96;100083.50;4471106;32;35367;-68
2023/01/14 12:11:59;;;;;;;;;;;;;;;13.32;48.02;100090.09;4473818;32;34313;-68
2023/01/14 12:17:19;;;;;;;;;;;;;;;14.10;46.65;100091.75;4472750;32;32791;-67
2023/01/14 12:19:48;;;;;;;;;;;;;;;14.19;46.15;100085.59;4458826;32;34639;-69
2023/01/14 12:22:17;;;;;;;;;;;;;;;14.24;46.41;100079.81;4460249;32;35142;-69
2023/01/14 12:24:56;;;;;;;;;;;;;;;13.77;46.43;100087.34;4468860;32;33829;-67
2023/01/14 12:27:42;;;;;;;;;;;;;;;14.58;45.07;100078.69;4468437;31;32138;-69
2023/01/14 12:30:15;;;;;;;;;;;;;;;14.25;45.36;100084.22;4474910;31;34754;-69
2023/01/14 12:32:43;;;;;;;;;;;;;;;14.20;45.38;100082.78;4480448;32;34153;-70
2023/01/14 12:35:13;;;;;;;;;;;;;;;14.07;45.29;100074.03;4455930;32;34234;-68
2023/01/14 12:37:46;;;;;;;;;;;;;;;13.76;46.37;100070.34;4465700;31;32278;-67
2023/01/14 12:45:50;;;;;;;;;;;;;;;13.42;45.92;100066.91;4466247;32;34196;-68
2023/01/14 12:48:18;;;;;;;;;;;;;;;13.81;45.64;100054.69;4471007;32;33640;-69
2023/01/14 12:50:55;;;;;;;;;;;;;;;13.91;45.69;100062.84;4470780;32;34389;-67
2023/01/14 12:53:35;;;;;;;;;;;;;;;13.83;46.28;100068.00;4470624;32;33806;-67
2023/01/14 12:56:03;;;;;;;;;;;;;;;14.01;46.33;100061.09;4470661;32;33681;-66
2023/01/14 12:58:32;;;;;;;;;;;;;;;14.06;46.47;100056.19;4473508;32;33100;-69
2023/01/14 13:01:00;;;;;;;;;;;;;;;13.87;46.45;100050.63;4478537;32;34364;-69
2023/01/14 13:03:38;;;;;;;;;;;;;;;13.78;46.08;100049.56;4454699;32;32922;-68
2023/01/14 13:06:10;;;;;;;;;;;;;;;13.87;46.59;100050.63;4458375;32;34402;-67
2023/01/14 13:08:37;;;;;;;;;;;;;;;14.10;46.77;100046.00;4459476;32;33409;-67
2023/01/14 13:11:06;;;;;;;;;;;;;;;13.53;48.18;100056.09;4459992;32;34321;-68
2023/01/14 13:13:34;;;;;;;;;;;;;;;13.51;47.45;100050.00;4480265;32;34034;-69
2023/01/14 13:16:02;;;;;;;;;;;;;;;12.99;48.91;100059.56;4469618;32;34471;-69
2023/01/14 13:18:39;;;;;;;;;;;;;;;13.71;47.75;100053.75;4476905;32;32249;-67
2023/01/14 13:21:07;;;;;;;;;;;;;;;13.81;47.69;100051.16;4473317;32;34128;-68
2023/01/14 13:23:44;;;;;;;;;;;;;;;13.62;47.45;100051.81;4463707;32;34987;-67
2023/01/14 13:26:17;;;;;;;;;;;;;;;14.14;46.27;100042.06;4474827;32;34138;-66
2023/01/14 13:29:03;;;;;;;;;;;;;;;13.65;46.70;100047.03;4475693;32;31095;-68
2023/01/14 13:31:34;;;;;;;;;;;;;;;13.40;46.86;100050.03;4479434;32;34966;-67